sensor_id;sensor_type;location;lat;lon;timestamp;P1;durP1;ratioP1;P2;durP2;ratioP2
83282;SDS011;73190;50.780;5.658;2024-02-21T00:01:39;23.70;;;11.15;;
83282;SDS011;73190;50.780;5.658;2024-02-21T00:04:07;27.52;;;11.03;;
83282;SDS011;73190;50.780;5.658;2024-02-21T00:06:35;28.35;;;10.98;;
83282;SDS011;73190;50.780;5.658;2024-02-21T00:09:02;32.00;;;11.33;;
83282;SDS011;73190;50.780;5.658;2024-02-21T00:11:30;26.37;;;12.20;;
83282;SDS011;73190;50.780;5.658;2024-02-21T00:13:57;27.45;;;10.55;;
83282;SDS011;73190;50.780;5.658;2024-02-21T00:16:25;27.90;;;11.12;;
83282;SDS011;73190;50.780;5.658;2024-02-21T00:18:53;26.30;;;11.28;;
83282;SDS011;73190;50.780;5.658;2024-02-21T00:21:20;26.05;;;10.60;;
83282;SDS011;73190;50.780;5.658;2024-02-21T00:23:48;26.33;;;11.48;;
83282;SDS011;73190;50.780;5.658;2024-02-21T00:26:16;25.88;;;11.15;;
83282;SDS011;73190;50.780;5.658;2024-02-21T00:28:43;27.87;;;11.22;;
83282;SDS011;73190;50.780;5.658;2024-02-21T00:31:11;28.83;;;11.08;;
83282;SDS011;73190;50.780;5.658;2024-02-21T00:33:39;30.30;;;11.50;;
83282;SDS011;73190;50.780;5.658;2024-02-21T00:36:07;24.07;;;10.93;;
83282;SDS011;73190;50.780;5.658;2024-02-21T00:38:34;28.38;;;10.78;;
83282;SDS011;73190;50.780;5.658;2024-02-21T00:41:02;23.67;;;11.05;;
83282;SDS011;73190;50.780;5.658;2024-02-21T00:43:30;30.62;;;10.82;;
83282;SDS011;73190;50.780;5.658;2024-02-21T00:45:57;32.35;;;11.33;;
83282;SDS011;73190;50.780;5.658;2024-02-21T00:48:25;25.95;;;11.10;;
83282;SDS011;73190;50.780;5.658;2024-02-21T00:50:52;32.88;;;11.00;;
83282;SDS011;73190;50.780;5.658;2024-02-21T00:53:20;28.60;;;10.68;;
83282;SDS011;73190;50.780;5.658;2024-02-21T00:55:47;25.17;;;11.12;;
83282;SDS011;73190;50.780;5.658;2024-02-21T00:58:15;26.15;;;10.65;;
83282;SDS011;73190;50.780;5.658;2024-02-21T01:00:42;26.87;;;10.90;;
83282;SDS011;73190;50.780;5.658;2024-02-21T01:03:10;25.60;;;11.28;;
83282;SDS011;73190;50.780;5.658;2024-02-21T01:05:37;26.62;;;11.18;;
83282;SDS011;73190;50.780;5.658;2024-02-21T01:08:05;22.87;;;10.20;;
83282;SDS011;73190;50.780;5.658;2024-02-21T01:10:32;26.62;;;11.95;;
83282;SDS011;73190;50.780;5.658;2024-02-21T01:13:00;26.05;;;10.90;;
83282;SDS011;73190;50.780;5.658;2024-02-21T01:15:27;26.62;;;11.90;;
83282;SDS011;73190;50.780;5.658;2024-02-21T01:17:55;23.27;;;11.35;;
83282;SDS011;73190;50.780;5.658;2024-02-21T01:20:23;30.35;;;11.70;;
83282;SDS011;73190;50.780;5.658;2024-02-21T01:22:50;26.77;;;11.60;;
83282;SDS011;73190;50.780;5.658;2024-02-21T01:25:18;33.33;;;10.70;;
83282;SDS011;73190;50.780;5.658;2024-02-21T01:27:45;24.23;;;10.48;;
83282;SDS011;73190;50.780;5.658;2024-02-21T01:30:13;29.18;;;10.50;;
83282;SDS011;73190;50.780;5.658;2024-02-21T01:32:40;25.37;;;10.35;;
83282;SDS011;73190;50.780;5.658;2024-02-21T01:35:08;28.57;;;10.28;;
83282;SDS011;73190;50.780;5.658;2024-02-21T01:37:35;20.15;;;9.78;;
83282;SDS011;73190;50.780;5.658;2024-02-21T01:40:03;28.00;;;11.10;;
83282;SDS011;73190;50.780;5.658;2024-02-21T01:42:31;22.65;;;10.55;;
83282;SDS011;73190;50.780;5.658;2024-02-21T01:44:58;29.02;;;10.53;;
83282;SDS011;73190;50.780;5.658;2024-02-21T01:47:26;24.15;;;10.05;;
83282;SDS011;73190;50.780;5.658;2024-02-21T01:49:53;27.75;;;10.18;;
83282;SDS011;73190;50.780;5.658;2024-02-21T01:52:21;30.62;;;10.65;;
83282;SDS011;73190;50.780;5.658;2024-02-21T01:54:49;28.27;;;10.85;;
83282;SDS011;73190;50.780;5.658;2024-02-21T01:57:17;20.90;;;9.83;;
83282;SDS011;73190;50.780;5.658;2024-02-21T01:59:45;27.42;;;10.23;;
83282;SDS011;73190;50.780;5.658;2024-02-21T02:02:12;21.17;;;9.00;;
83282;SDS011;73190;50.780;5.658;2024-02-21T02:04:42;32.08;;;10.08;;
83282;SDS011;73190;50.780;5.658;2024-02-21T02:07:10;29.52;;;10.32;;
83282;SDS011;73190;50.780;5.658;2024-02-21T02:09:38;25.27;;;9.73;;
83282;SDS011;73190;50.780;5.658;2024-02-21T02:12:06;25.62;;;9.20;;
83282;SDS011;73190;50.780;5.658;2024-02-21T02:14:34;22.40;;;9.78;;
83282;SDS011;73190;50.780;5.658;2024-02-21T02:17:01;30.27;;;9.38;;
83282;SDS011;73190;50.780;5.658;2024-02-21T02:19:29;23.20;;;9.25;;
83282;SDS011;73190;50.780;5.658;2024-02-21T02:21:59;24.07;;;8.88;;
83282;SDS011;73190;50.780;5.658;2024-02-21T02:24:27;26.07;;;9.98;;
83282;SDS011;73190;50.780;5.658;2024-02-21T02:26:55;21.17;;;8.68;;
83282;SDS011;73190;50.780;5.658;2024-02-21T02:29:22;21.77;;;9.10;;
83282;SDS011;73190;50.780;5.658;2024-02-21T02:31:50;26.82;;;9.50;;
83282;SDS011;73190;50.780;5.658;2024-02-21T02:34:17;26.57;;;9.08;;
83282;SDS011;73190;50.780;5.658;2024-02-21T02:36:45;24.40;;;9.20;;
83282;SDS011;73190;50.780;5.658;2024-02-21T02:39:14;24.50;;;9.40;;
83282;SDS011;73190;50.780;5.658;2024-02-21T02:41:42;25.20;;;9.85;;
83282;SDS011;73190;50.780;5.658;2024-02-21T02:44:09;21.90;;;9.18;;
83282;SDS011;73190;50.780;5.658;2024-02-21T02:46:37;27.62;;;9.05;;
83282;SDS011;73190;50.780;5.658;2024-02-21T02:49:08;26.33;;;8.90;;
83282;SDS011;73190;50.780;5.658;2024-02-21T02:51:36;20.02;;;8.83;;
83282;SDS011;73190;50.780;5.658;2024-02-21T02:54:05;25.68;;;9.15;;
83282;SDS011;73190;50.780;5.658;2024-02-21T02:56:33;21.42;;;9.13;;
83282;SDS011;73190;50.780;5.658;2024-02-21T02:59:00;22.07;;;9.05;;
83282;SDS011;73190;50.780;5.658;2024-02-21T03:01:29;24.65;;;10.08;;
83282;SDS011;73190;50.780;5.658;2024-02-21T03:03:58;29.75;;;10.03;;
83282;SDS011;73190;50.780;5.658;2024-02-21T03:06:25;21.73;;;9.90;;
83282;SDS011;73190;50.780;5.658;2024-02-21T03:08:53;28.15;;;9.58;;
83282;SDS011;73190;50.780;5.658;2024-02-21T03:11:20;25.27;;;9.60;;
83282;SDS011;73190;50.780;5.658;2024-02-21T03:13:49;27.30;;;8.90;;
83282;SDS011;73190;50.780;5.658;2024-02-21T03:16:17;22.70;;;8.73;;
83282;SDS011;73190;50.780;5.658;2024-02-21T03:18:45;22.20;;;10.63;;
83282;SDS011;73190;50.780;5.658;2024-02-21T03:21:12;28.32;;;9.23;;
83282;SDS011;73190;50.780;5.658;2024-02-21T03:23:40;25.23;;;8.45;;
83282;SDS011;73190;50.780;5.658;2024-02-21T03:26:07;26.33;;;9.60;;
83282;SDS011;73190;50.780;5.658;2024-02-21T03:28:35;26.20;;;9.33;;
83282;SDS011;73190;50.780;5.658;2024-02-21T03:31:02;25.27;;;9.40;;
83282;SDS011;73190;50.780;5.658;2024-02-21T03:33:30;19.32;;;8.90;;
83282;SDS011;73190;50.780;5.658;2024-02-21T03:35:57;21.45;;;8.93;;
83282;SDS011;73190;50.780;5.658;2024-02-21T03:38:25;22.02;;;9.35;;
83282;SDS011;73190;50.780;5.658;2024-02-21T03:40:53;25.68;;;9.95;;
83282;SDS011;73190;50.780;5.658;2024-02-21T03:43:20;20.40;;;8.23;;
83282;SDS011;73190;50.780;5.658;2024-02-21T03:45:48;20.85;;;8.85;;
83282;SDS011;73190;50.780;5.658;2024-02-21T03:48:15;27.60;;;10.10;;
83282;SDS011;73190;50.780;5.658;2024-02-21T03:50:43;23.20;;;8.90;;
83282;SDS011;73190;50.780;5.658;2024-02-21T03:53:10;21.07;;;7.80;;
83282;SDS011;73190;50.780;5.658;2024-02-21T03:55:38;24.67;;;8.45;;
83282;SDS011;73190;50.780;5.658;2024-02-21T03:58:05;23.75;;;7.75;;
83282;SDS011;73190;50.780;5.658;2024-02-21T04:00:33;19.95;;;8.65;;
83282;SDS011;73190;50.780;5.658;2024-02-21T04:03:01;22.25;;;8.75;;
83282;SDS011;73190;50.780;5.658;2024-02-21T04:05:29;19.65;;;8.03;;
83282;SDS011;73190;50.780;5.658;2024-02-21T04:07:56;23.52;;;9.33;;
83282;SDS011;73190;50.780;5.658;2024-02-21T04:10:24;18.90;;;7.80;;
83282;SDS011;73190;50.780;5.658;2024-02-21T04:12:52;25.40;;;8.75;;
83282;SDS011;73190;50.780;5.658;2024-02-21T04:15:19;17.67;;;8.28;;
83282;SDS011;73190;50.780;5.658;2024-02-21T04:17:47;24.40;;;8.38;;
83282;SDS011;73190;50.780;5.658;2024-02-21T04:20:15;21.20;;;8.33;;
83282;SDS011;73190;50.780;5.658;2024-02-21T04:22:43;21.85;;;8.48;;
83282;SDS011;73190;50.780;5.658;2024-02-21T04:25:11;22.70;;;8.43;;
83282;SDS011;73190;50.780;5.658;2024-02-21T04:27:39;20.62;;;8.30;;
83282;SDS011;73190;50.780;5.658;2024-02-21T04:30:07;15.65;;;7.72;;
83282;SDS011;73190;50.780;5.658;2024-02-21T04:32:35;14.93;;;7.37;;
83282;SDS011;73190;50.780;5.658;2024-02-21T04:35:02;17.12;;;7.53;;
83282;SDS011;73190;50.780;5.658;2024-02-21T04:37:30;17.52;;;7.78;;
83282;SDS011;73190;50.780;5.658;2024-02-21T04:39:58;21.40;;;8.00;;
83282;SDS011;73190;50.780;5.658;2024-02-21T04:42:26;17.02;;;7.75;;
83282;SDS011;73190;50.780;5.658;2024-02-21T04:44:53;15.50;;;7.30;;
83282;SDS011;73190;50.780;5.658;2024-02-21T04:47:21;21.12;;;8.03;;
83282;SDS011;73190;50.780;5.658;2024-02-21T04:49:50;19.95;;;8.13;;
83282;SDS011;73190;50.780;5.658;2024-02-21T04:52:17;22.20;;;7.92;;
83282;SDS011;73190;50.780;5.658;2024-02-21T04:54:45;24.50;;;7.30;;
83282;SDS011;73190;50.780;5.658;2024-02-21T04:57:12;21.90;;;7.65;;
83282;SDS011;73190;50.780;5.658;2024-02-21T04:59:43;18.82;;;7.05;;
83282;SDS011;73190;50.780;5.658;2024-02-21T05:02:13;23.67;;;7.70;;
83282;SDS011;73190;50.780;5.658;2024-02-21T05:04:42;21.57;;;7.45;;
83282;SDS011;73190;50.780;5.658;2024-02-21T05:07:09;17.92;;;7.03;;
83282;SDS011;73190;50.780;5.658;2024-02-21T05:09:37;23.07;;;7.42;;
83282;SDS011;73190;50.780;5.658;2024-02-21T05:12:05;20.43;;;6.90;;
83282;SDS011;73190;50.780;5.658;2024-02-21T05:14:33;17.98;;;7.53;;
83282;SDS011;73190;50.780;5.658;2024-02-21T05:17:01;21.95;;;7.20;;
83282;SDS011;73190;50.780;5.658;2024-02-21T05:19:28;18.55;;;7.10;;
83282;SDS011;73190;50.780;5.658;2024-02-21T05:21:56;26.70;;;7.50;;
83282;SDS011;73190;50.780;5.658;2024-02-21T05:24:23;19.87;;;7.05;;
83282;SDS011;73190;50.780;5.658;2024-02-21T05:26:51;23.38;;;7.83;;
83282;SDS011;73190;50.780;5.658;2024-02-21T05:29:20;26.42;;;7.60;;
83282;SDS011;73190;50.780;5.658;2024-02-21T05:34:21;23.18;;;7.00;;
83282;SDS011;73190;50.780;5.658;2024-02-21T05:36:49;19.00;;;7.17;;
83282;SDS011;73190;50.780;5.658;2024-02-21T05:39:17;23.77;;;7.53;;
83282;SDS011;73190;50.780;5.658;2024-02-21T05:41:45;17.17;;;7.55;;
83282;SDS011;73190;50.780;5.658;2024-02-21T05:44:12;23.12;;;7.12;;
83282;SDS011;73190;50.780;5.658;2024-02-21T05:46:40;21.57;;;6.70;;
83282;SDS011;73190;50.780;5.658;2024-02-21T05:49:07;18.32;;;7.08;;
83282;SDS011;73190;50.780;5.658;2024-02-21T05:51:35;22.50;;;8.00;;
83282;SDS011;73190;50.780;5.658;2024-02-21T05:54:02;32.63;;;8.10;;
83282;SDS011;73190;50.780;5.658;2024-02-21T05:56:30;21.87;;;7.55;;
83282;SDS011;73190;50.780;5.658;2024-02-21T05:58:57;23.85;;;8.30;;
83282;SDS011;73190;50.780;5.658;2024-02-21T06:01:25;19.20;;;7.65;;
83282;SDS011;73190;50.780;5.658;2024-02-21T06:03:53;21.27;;;7.72;;
83282;SDS011;73190;50.780;5.658;2024-02-21T06:06:21;23.73;;;8.10;;
83282;SDS011;73190;50.780;5.658;2024-02-21T06:08:48;26.90;;;8.08;;
83282;SDS011;73190;50.780;5.658;2024-02-21T06:11:16;17.40;;;6.97;;
83282;SDS011;73190;50.780;5.658;2024-02-21T06:13:43;19.77;;;6.92;;
83282;SDS011;73190;50.780;5.658;2024-02-21T06:16:11;22.98;;;7.50;;
83282;SDS011;73190;50.780;5.658;2024-02-21T06:18:39;25.82;;;7.47;;
83282;SDS011;73190;50.780;5.658;2024-02-21T06:21:06;16.95;;;6.92;;
83282;SDS011;73190;50.780;5.658;2024-02-21T06:23:34;20.97;;;7.92;;
83282;SDS011;73190;50.780;5.658;2024-02-21T06:26:03;19.75;;;5.85;;
83282;SDS011;73190;50.780;5.658;2024-02-21T06:28:31;16.93;;;6.05;;
83282;SDS011;73190;50.780;5.658;2024-02-21T06:30:58;24.52;;;6.40;;
83282;SDS011;73190;50.780;5.658;2024-02-21T06:33:26;16.75;;;6.42;;
83282;SDS011;73190;50.780;5.658;2024-02-21T06:35:53;21.68;;;6.70;;
83282;SDS011;73190;50.780;5.658;2024-02-21T06:38:21;16.97;;;5.72;;
83282;SDS011;73190;50.780;5.658;2024-02-21T06:40:49;19.60;;;5.45;;
83282;SDS011;73190;50.780;5.658;2024-02-21T06:43:18;18.70;;;5.83;;
83282;SDS011;73190;50.780;5.658;2024-02-21T06:45:46;19.80;;;5.83;;
83282;SDS011;73190;50.780;5.658;2024-02-21T06:48:15;18.23;;;5.20;;
83282;SDS011;73190;50.780;5.658;2024-02-21T06:50:44;16.62;;;5.00;;
83282;SDS011;73190;50.780;5.658;2024-02-21T06:53:12;12.85;;;5.00;;
83282;SDS011;73190;50.780;5.658;2024-02-21T06:55:39;16.10;;;5.20;;
83282;SDS011;73190;50.780;5.658;2024-02-21T06:58:07;17.92;;;4.97;;
83282;SDS011;73190;50.780;5.658;2024-02-21T07:00:36;17.97;;;5.57;;
83282;SDS011;73190;50.780;5.658;2024-02-21T07:03:04;20.20;;;5.60;;
83282;SDS011;73190;50.780;5.658;2024-02-21T07:05:32;19.52;;;5.55;;
83282;SDS011;73190;50.780;5.658;2024-02-21T07:07:59;14.35;;;5.22;;
83282;SDS011;73190;50.780;5.658;2024-02-21T07:10:27;17.07;;;5.28;;
83282;SDS011;73190;50.780;5.658;2024-02-21T07:12:55;20.80;;;5.25;;
83282;SDS011;73190;50.780;5.658;2024-02-21T07:15:22;17.50;;;5.25;;
83282;SDS011;73190;50.780;5.658;2024-02-21T07:17:52;13.57;;;5.17;;
83282;SDS011;73190;50.780;5.658;2024-02-21T07:20:19;15.18;;;5.25;;
83282;SDS011;73190;50.780;5.658;2024-02-21T07:22:47;15.55;;;5.67;;
83282;SDS011;73190;50.780;5.658;2024-02-21T07:25:14;13.90;;;5.25;;
83282;SDS011;73190;50.780;5.658;2024-02-21T07:27:43;15.23;;;5.47;;
83282;SDS011;73190;50.780;5.658;2024-02-21T07:30:11;13.13;;;5.15;;
83282;SDS011;73190;50.780;5.658;2024-02-21T07:32:39;15.48;;;6.12;;
83282;SDS011;73190;50.780;5.658;2024-02-21T07:35:06;16.77;;;4.97;;
83282;SDS011;73190;50.780;5.658;2024-02-21T07:37:36;14.30;;;5.15;;
83282;SDS011;73190;50.780;5.658;2024-02-21T07:40:06;13.68;;;5.00;;
83282;SDS011;73190;50.780;5.658;2024-02-21T07:42:35;14.05;;;4.65;;
83282;SDS011;73190;50.780;5.658;2024-02-21T07:45:02;14.93;;;4.50;;
83282;SDS011;73190;50.780;5.658;2024-02-21T07:47:30;15.03;;;5.00;;
83282;SDS011;73190;50.780;5.658;2024-02-21T07:49:58;16.02;;;4.80;;
83282;SDS011;73190;50.780;5.658;2024-02-21T07:52:25;13.50;;;5.12;;
83282;SDS011;73190;50.780;5.658;2024-02-21T07:54:53;14.83;;;5.12;;
83282;SDS011;73190;50.780;5.658;2024-02-21T07:57:20;12.98;;;4.85;;
83282;SDS011;73190;50.780;5.658;2024-02-21T07:59:48;13.93;;;4.97;;
83282;SDS011;73190;50.780;5.658;2024-02-21T08:02:16;18.30;;;5.17;;
83282;SDS011;73190;50.780;5.658;2024-02-21T08:04:43;11.88;;;4.60;;
83282;SDS011;73190;50.780;5.658;2024-02-21T08:07:11;14.03;;;5.05;;
83282;SDS011;73190;50.780;5.658;2024-02-21T08:09:39;13.08;;;4.67;;
83282;SDS011;73190;50.780;5.658;2024-02-21T08:12:07;14.30;;;4.83;;
83282;SDS011;73190;50.780;5.658;2024-02-21T08:14:34;13.93;;;4.62;;
83282;SDS011;73190;50.780;5.658;2024-02-21T08:17:02;17.20;;;4.75;;
83282;SDS011;73190;50.780;5.658;2024-02-21T08:19:29;14.50;;;4.83;;
83282;SDS011;73190;50.780;5.658;2024-02-21T08:21:57;13.18;;;4.03;;
83282;SDS011;73190;50.780;5.658;2024-02-21T08:24:25;11.97;;;3.98;;
83282;SDS011;73190;50.780;5.658;2024-02-21T08:26:52;12.23;;;4.08;;
83282;SDS011;73190;50.780;5.658;2024-02-21T08:29:20;9.03;;;4.28;;
83282;SDS011;73190;50.780;5.658;2024-02-21T08:31:48;13.43;;;4.20;;
83282;SDS011;73190;50.780;5.658;2024-02-21T08:34:17;9.30;;;3.98;;
83282;SDS011;73190;50.780;5.658;2024-02-21T08:39:13;15.05;;;3.62;;
83282;SDS011;73190;50.780;5.658;2024-02-21T08:44:10;10.65;;;3.55;;
83282;SDS011;73190;50.780;5.658;2024-02-21T08:46:38;12.13;;;3.55;;
83282;SDS011;73190;50.780;5.658;2024-02-21T08:49:06;15.80;;;4.03;;
83282;SDS011;73190;50.780;5.658;2024-02-21T08:51:33;12.73;;;3.67;;
83282;SDS011;73190;50.780;5.658;2024-02-21T08:54:01;15.75;;;3.62;;
83282;SDS011;73190;50.780;5.658;2024-02-21T08:56:29;13.38;;;4.20;;
83282;SDS011;73190;50.780;5.658;2024-02-21T08:58:57;14.05;;;3.25;;
83282;SDS011;73190;50.780;5.658;2024-02-21T09:01:25;11.68;;;3.50;;
83282;SDS011;73190;50.780;5.658;2024-02-21T09:03:53;11.85;;;3.30;;
83282;SDS011;73190;50.780;5.658;2024-02-21T09:06:22;11.12;;;3.45;;
83282;SDS011;73190;50.780;5.658;2024-02-21T09:08:50;11.50;;;3.77;;
83282;SDS011;73190;50.780;5.658;2024-02-21T09:11:17;13.60;;;3.67;;
83282;SDS011;73190;50.780;5.658;2024-02-21T09:13:45;17.87;;;3.58;;
83282;SDS011;73190;50.780;5.658;2024-02-21T09:16:12;13.08;;;3.58;;
83282;SDS011;73190;50.780;5.658;2024-02-21T09:18:40;11.45;;;3.98;;
83282;SDS011;73190;50.780;5.658;2024-02-21T09:21:08;13.72;;;3.80;;
83282;SDS011;73190;50.780;5.658;2024-02-21T09:23:36;11.10;;;3.55;;
83282;SDS011;73190;50.780;5.658;2024-02-21T09:26:04;11.95;;;4.12;;
83282;SDS011;73190;50.780;5.658;2024-02-21T09:28:31;17.23;;;4.75;;
83282;SDS011;73190;50.780;5.658;2024-02-21T09:31:00;10.25;;;3.65;;
83282;SDS011;73190;50.780;5.658;2024-02-21T09:33:27;13.75;;;3.85;;
83282;SDS011;73190;50.780;5.658;2024-02-21T09:35:55;14.35;;;4.22;;
83282;SDS011;73190;50.780;5.658;2024-02-21T09:38:22;9.60;;;4.00;;
83282;SDS011;73190;50.780;5.658;2024-02-21T09:41:33;13.43;;;4.50;;
83282;SDS011;73190;50.780;5.658;2024-02-21T09:43:29;11.53;;;3.95;;
83282;SDS011;73190;50.780;5.658;2024-02-21T09:45:57;12.47;;;4.50;;
83282;SDS011;73190;50.780;5.658;2024-02-21T09:48:30;14.15;;;4.17;;
83282;SDS011;73190;50.780;5.658;2024-02-21T09:50:59;15.65;;;4.28;;
83282;SDS011;73190;50.780;5.658;2024-02-21T09:53:27;13.18;;;4.05;;
83282;SDS011;73190;50.780;5.658;2024-02-21T09:55:57;12.23;;;3.95;;
83282;SDS011;73190;50.780;5.658;2024-02-21T09:58:26;11.20;;;4.08;;
83282;SDS011;73190;50.780;5.658;2024-02-21T10:00:54;15.15;;;5.33;;
83282;SDS011;73190;50.780;5.658;2024-02-21T10:03:23;16.00;;;4.75;;
83282;SDS011;73190;50.780;5.658;2024-02-21T10:05:50;12.85;;;4.70;;
83282;SDS011;73190;50.780;5.658;2024-02-21T10:08:19;15.23;;;4.85;;
83282;SDS011;73190;50.780;5.658;2024-02-21T10:10:47;12.43;;;4.53;;
83282;SDS011;73190;50.780;5.658;2024-02-21T10:13:24;14.07;;;4.58;;
83282;SDS011;73190;50.780;5.658;2024-02-21T10:16:06;22.07;;;4.42;;
83282;SDS011;73190;50.780;5.658;2024-02-21T10:18:36;14.25;;;4.50;;
83282;SDS011;73190;50.780;5.658;2024-02-21T10:21:04;16.87;;;4.95;;
83282;SDS011;73190;50.780;5.658;2024-02-21T10:23:46;16.35;;;4.83;;
83282;SDS011;73190;50.780;5.658;2024-02-21T10:26:17;12.10;;;4.22;;
83282;SDS011;73190;50.780;5.658;2024-02-21T10:28:45;13.05;;;4.40;;
83282;SDS011;73190;50.780;5.658;2024-02-21T10:31:22;13.80;;;4.53;;
83282;SDS011;73190;50.780;5.658;2024-02-21T10:33:58;16.55;;;4.50;;
83282;SDS011;73190;50.780;5.658;2024-02-21T10:36:31;11.75;;;3.77;;
83282;SDS011;73190;50.780;5.658;2024-02-21T10:38:58;15.03;;;4.30;;
83282;SDS011;73190;50.780;5.658;2024-02-21T10:41:26;13.62;;;4.22;;
83282;SDS011;73190;50.780;5.658;2024-02-21T10:43:54;12.98;;;4.10;;
83282;SDS011;73190;50.780;5.658;2024-02-21T10:46:23;12.40;;;4.33;;
83282;SDS011;73190;50.780;5.658;2024-02-21T10:49:01;10.82;;;4.20;;
83282;SDS011;73190;50.780;5.658;2024-02-21T10:51:37;12.05;;;4.75;;
83282;SDS011;73190;50.780;5.658;2024-02-21T10:54:21;12.70;;;3.80;;
83282;SDS011;73190;50.780;5.658;2024-02-21T10:56:53;13.60;;;3.87;;
83282;SDS011;73190;50.780;5.658;2024-02-21T10:59:23;14.85;;;4.30;;
83282;SDS011;73190;50.780;5.658;2024-02-21T11:01:52;15.50;;;5.35;;
83282;SDS011;73190;50.780;5.658;2024-02-21T11:04:19;12.15;;;4.28;;
83282;SDS011;73190;50.780;5.658;2024-02-21T11:06:47;19.82;;;4.97;;
83282;SDS011;73190;50.780;5.658;2024-02-21T11:09:16;15.63;;;4.40;;
83282;SDS011;73190;50.780;5.658;2024-02-21T11:11:44;10.80;;;3.95;;
83282;SDS011;73190;50.780;5.658;2024-02-21T11:14:20;10.55;;;4.85;;
83282;SDS011;73190;50.780;5.658;2024-02-21T11:16:47;12.05;;;4.60;;
83282;SDS011;73190;50.780;5.658;2024-02-21T11:19:21;18.12;;;4.65;;
83282;SDS011;73190;50.780;5.658;2024-02-21T11:21:51;16.70;;;4.42;;
83282;SDS011;73190;50.780;5.658;2024-02-21T11:24:30;13.22;;;4.37;;
83282;SDS011;73190;50.780;5.658;2024-02-21T11:27:09;14.28;;;4.65;;
83282;SDS011;73190;50.780;5.658;2024-02-21T11:29:53;10.32;;;4.17;;
83282;SDS011;73190;50.780;5.658;2024-02-21T11:32:18;12.78;;;4.67;;
83282;SDS011;73190;50.780;5.658;2024-02-21T11:34:56;11.68;;;4.00;;
83282;SDS011;73190;50.780;5.658;2024-02-21T11:37:27;14.73;;;5.37;;
83282;SDS011;73190;50.780;5.658;2024-02-21T11:39:56;18.30;;;4.50;;
83282;SDS011;73190;50.780;5.658;2024-02-21T11:42:26;14.83;;;4.47;;
83282;SDS011;73190;50.780;5.658;2024-02-21T11:44:56;18.10;;;4.30;;
83282;SDS011;73190;50.780;5.658;2024-02-21T11:47:23;13.70;;;4.00;;
83282;SDS011;73190;50.780;5.658;2024-02-21T11:49:51;16.73;;;4.58;;
83282;SDS011;73190;50.780;5.658;2024-02-21T11:52:22;10.68;;;4.30;;
83282;SDS011;73190;50.780;5.658;2024-02-21T11:54:53;9.75;;;4.05;;
83282;SDS011;73190;50.780;5.658;2024-02-21T11:57:23;15.63;;;4.17;;
83282;SDS011;73190;50.780;5.658;2024-02-21T11:59:55;13.45;;;4.00;;
83282;SDS011;73190;50.780;5.658;2024-02-21T12:04:48;10.82;;;4.22;;
83282;SDS011;73190;50.780;5.658;2024-02-21T12:07:17;11.55;;;4.12;;
83282;SDS011;73190;50.780;5.658;2024-02-21T12:09:44;11.22;;;4.65;;
83282;SDS011;73190;50.780;5.658;2024-02-21T12:12:13;14.45;;;4.60;;
83282;SDS011;73190;50.780;5.658;2024-02-21T12:14:42;10.32;;;4.17;;
83282;SDS011;73190;50.780;5.658;2024-02-21T12:17:09;13.88;;;4.15;;
83282;SDS011;73190;50.780;5.658;2024-02-21T12:19:37;11.15;;;4.40;;
83282;SDS011;73190;50.780;5.658;2024-02-21T12:22:05;12.03;;;4.75;;
83282;SDS011;73190;50.780;5.658;2024-02-21T12:24:34;12.28;;;3.75;;
83282;SDS011;73190;50.780;5.658;2024-02-21T12:27:03;13.77;;;3.73;;
83282;SDS011;73190;50.780;5.658;2024-02-21T12:29:31;11.12;;;3.72;;
83282;SDS011;73190;50.780;5.658;2024-02-21T12:31:58;11.53;;;4.20;;
83282;SDS011;73190;50.780;5.658;2024-02-21T12:34:26;9.38;;;3.60;;
83282;SDS011;73190;50.780;5.658;2024-02-21T12:36:53;9.08;;;3.92;;
83282;SDS011;73190;50.780;5.658;2024-02-21T12:39:21;12.50;;;4.08;;
83282;SDS011;73190;50.780;5.658;2024-02-21T12:41:48;10.48;;;3.42;;
83282;SDS011;73190;50.780;5.658;2024-02-21T12:44:16;10.93;;;4.08;;
83282;SDS011;73190;50.780;5.658;2024-02-21T12:46:44;11.35;;;3.52;;
83282;SDS011;73190;50.780;5.658;2024-02-21T12:49:11;8.30;;;3.20;;
83282;SDS011;73190;50.780;5.658;2024-02-21T12:51:39;9.73;;;3.05;;
83282;SDS011;73190;50.780;5.658;2024-02-21T12:54:07;7.83;;;2.95;;
83282;SDS011;73190;50.780;5.658;2024-02-21T12:56:36;10.95;;;3.70;;
83282;SDS011;73190;50.780;5.658;2024-02-21T12:59:05;12.13;;;3.30;;
83282;SDS011;73190;50.780;5.658;2024-02-21T13:01:35;9.33;;;3.40;;
83282;SDS011;73190;50.780;5.658;2024-02-21T13:04:03;8.73;;;3.50;;
83282;SDS011;73190;50.780;5.658;2024-02-21T13:06:31;13.50;;;3.25;;
83282;SDS011;73190;50.780;5.658;2024-02-21T13:08:58;25.10;;;12.75;;
83282;SDS011;73190;50.780;5.658;2024-02-21T13:11:27;32.03;;;12.70;;
83282;SDS011;73190;50.780;5.658;2024-02-21T13:13:56;141.30;;;75.85;;
83282;SDS011;73190;50.780;5.658;2024-02-21T13:16:24;252.10;;;108.57;;
83282;SDS011;73190;50.780;5.658;2024-02-21T13:18:53;178.37;;;87.23;;
83282;SDS011;73190;50.780;5.658;2024-02-21T13:21:21;159.18;;;84.40;;
83282;SDS011;73190;50.780;5.658;2024-02-21T13:23:48;127.45;;;76.05;;
83282;SDS011;73190;50.780;5.658;2024-02-21T13:26:15;59.13;;;38.67;;
83282;SDS011;73190;50.780;5.658;2024-02-21T13:28:43;27.45;;;15.15;;
83282;SDS011;73190;50.780;5.658;2024-02-21T13:31:11;13.72;;;7.95;;
83282;SDS011;73190;50.780;5.658;2024-02-21T13:33:38;11.08;;;6.25;;
83282;SDS011;73190;50.780;5.658;2024-02-21T13:36:06;27.02;;;15.28;;
83282;SDS011;73190;50.780;5.658;2024-02-21T13:38:33;13.93;;;3.98;;
83282;SDS011;73190;50.780;5.658;2024-02-21T13:41:01;9.78;;;3.27;;
83282;SDS011;73190;50.780;5.658;2024-02-21T13:43:29;8.38;;;3.37;;
83282;SDS011;73190;50.780;5.658;2024-02-21T13:45:57;12.33;;;2.85;;
83282;SDS011;73190;50.780;5.658;2024-02-21T13:50:54;8.93;;;2.83;;
83282;SDS011;73190;50.780;5.658;2024-02-21T13:53:22;16.00;;;6.90;;
83282;SDS011;73190;50.780;5.658;2024-02-21T13:55:50;19.85;;;14.45;;
83282;SDS011;73190;50.780;5.658;2024-02-21T13:58:18;10.85;;;5.75;;
83282;SDS011;73190;50.780;5.658;2024-02-21T14:00:45;13.22;;;7.03;;
83282;SDS011;73190;50.780;5.658;2024-02-21T14:03:13;16.70;;;9.95;;
83282;SDS011;73190;50.780;5.658;2024-02-21T14:05:41;20.92;;;12.58;;
83282;SDS011;73190;50.780;5.658;2024-02-21T14:08:08;16.50;;;7.45;;
83282;SDS011;73190;50.780;5.658;2024-02-21T14:10:36;23.77;;;9.83;;
83282;SDS011;73190;50.780;5.658;2024-02-21T14:13:03;21.12;;;12.43;;
83282;SDS011;73190;50.780;5.658;2024-02-21T14:15:31;26.60;;;20.15;;
83282;SDS011;73190;50.780;5.658;2024-02-21T14:17:59;26.73;;;17.50;;
83282;SDS011;73190;50.780;5.658;2024-02-21T14:20:26;24.60;;;13.20;;
83282;SDS011;73190;50.780;5.658;2024-02-21T14:22:54;20.90;;;14.60;;
83282;SDS011;73190;50.780;5.658;2024-02-21T14:25:21;20.60;;;14.68;;
83282;SDS011;73190;50.780;5.658;2024-02-21T14:27:49;31.07;;;20.72;;
83282;SDS011;73190;50.780;5.658;2024-02-21T14:30:16;20.35;;;13.43;;
83282;SDS011;73190;50.780;5.658;2024-02-21T14:32:44;15.83;;;7.40;;
83282;SDS011;73190;50.780;5.658;2024-02-21T14:35:12;16.35;;;7.75;;
83282;SDS011;73190;50.780;5.658;2024-02-21T14:37:41;11.43;;;6.03;;
83282;SDS011;73190;50.780;5.658;2024-02-21T14:40:08;11.05;;;4.97;;
83282;SDS011;73190;50.780;5.658;2024-02-21T14:42:36;9.33;;;3.80;;
83282;SDS011;73190;50.780;5.658;2024-02-21T14:45:04;8.78;;;2.60;;
83282;SDS011;73190;50.780;5.658;2024-02-21T14:47:32;10.58;;;2.40;;
83282;SDS011;73190;50.780;5.658;2024-02-21T14:50:00;9.13;;;2.75;;
83282;SDS011;73190;50.780;5.658;2024-02-21T14:52:31;9.68;;;3.75;;